sensor_id;sensor_type;location;lat;lon;timestamp;P1;durP1;ratioP1;P2;durP2;ratioP2
43435;SDS011;36399;51.444;-2.018;2022-09-21T00:01:04;8.10;;;3.47;;
43435;SDS011;36399;51.444;-2.018;2022-09-21T00:03:44;6.60;;;3.50;;
43435;SDS011;36399;51.444;-2.018;2022-09-21T00:06:12;6.40;;;3.40;;
43435;SDS011;36399;51.444;-2.018;2022-09-21T00:08:41;7.00;;;3.00;;
43435;SDS011;36399;51.444;-2.018;2022-09-21T00:11:10;7.17;;;3.60;;
43435;SDS011;36399;51.444;-2.018;2022-09-21T00:13:42;8.87;;;4.20;;
43435;SDS011;36399;51.444;-2.018;2022-09-21T00:16:11;7.20;;;3.60;;
43435;SDS011;36399;51.444;-2.018;2022-09-21T00:18:39;7.27;;;3.60;;
43435;SDS011;36399;51.444;-2.018;2022-09-21T00:21:07;7.93;;;3.80;;
43435;SDS011;36399;51.444;-2.018;2022-09-21T00:23:35;6.57;;;3.50;;
43435;SDS011;36399;51.444;-2.018;2022-09-21T00:26:03;6.40;;;3.00;;
43435;SDS011;36399;51.444;-2.018;2022-09-21T00:28:33;6.37;;;2.87;;
43435;SDS011;36399;51.444;-2.018;2022-09-21T00:31:01;4.70;;;2.37;;
43435;SDS011;36399;51.444;-2.018;2022-09-21T00:33:29;6.53;;;2.80;;
43435;SDS011;36399;51.444;-2.018;2022-09-21T00:35:55;7.20;;;3.33;;
43435;SDS011;36399;51.444;-2.018;2022-09-21T00:38:20;6.10;;;3.77;;
43435;SDS011;36399;51.444;-2.018;2022-09-21T00:40:46;5.37;;;2.90;;
43435;SDS011;36399;51.444;-2.018;2022-09-21T00:43:13;6.60;;;4.20;;
43435;SDS011;36399;51.444;-2.018;2022-09-21T00:45:41;8.70;;;4.33;;
43435;SDS011;36399;51.444;-2.018;2022-09-21T00:48:08;9.67;;;4.60;;
43435;SDS011;36399;51.444;-2.018;2022-09-21T00:50:35;7.70;;;4.53;;
43435;SDS011;36399;51.444;-2.018;2022-09-21T00:53:07;8.73;;;4.07;;
43435;SDS011;36399;51.444;-2.018;2022-09-21T00:55:33;7.63;;;4.10;;
43435;SDS011;36399;51.444;-2.018;2022-09-21T01:00:37;8.23;;;4.00;;
43435;SDS011;36399;51.444;-2.018;2022-09-21T01:03:04;6.63;;;3.40;;
43435;SDS011;36399;51.444;-2.018;2022-09-21T01:05:33;6.10;;;3.30;;
43435;SDS011;36399;51.444;-2.018;2022-09-21T01:07:59;7.23;;;3.53;;
43435;SDS011;36399;51.444;-2.018;2022-09-21T01:10:37;6.33;;;3.23;;
43435;SDS011;36399;51.444;-2.018;2022-09-21T01:13:28;7.40;;;2.80;;
43435;SDS011;36399;51.444;-2.018;2022-09-21T01:16:13;6.17;;;3.23;;
43435;SDS011;36399;51.444;-2.018;2022-09-21T01:22:07;6.90;;;3.40;;
43435;SDS011;36399;51.444;-2.018;2022-09-21T01:24:47;8.20;;;4.20;;
43435;SDS011;36399;51.444;-2.018;2022-09-21T01:27:25;9.03;;;4.17;;
43435;SDS011;36399;51.444;-2.018;2022-09-21T01:30:15;8.17;;;4.50;;
43435;SDS011;36399;51.444;-2.018;2022-09-21T01:32:51;9.10;;;4.87;;
43435;SDS011;36399;51.444;-2.018;2022-09-21T01:35:21;10.03;;;4.90;;
43435;SDS011;36399;51.444;-2.018;2022-09-21T01:40:30;9.03;;;4.63;;
43435;SDS011;36399;51.444;-2.018;2022-09-21T01:43:00;13.07;;;4.07;;
43435;SDS011;36399;51.444;-2.018;2022-09-21T01:45:29;8.93;;;4.50;;
43435;SDS011;36399;51.444;-2.018;2022-09-21T01:47:59;7.70;;;3.90;;
43435;SDS011;36399;51.444;-2.018;2022-09-21T01:50:36;8.23;;;4.63;;
43435;SDS011;36399;51.444;-2.018;2022-09-21T01:53:14;8.57;;;5.03;;
43435;SDS011;36399;51.444;-2.018;2022-09-21T01:55:49;6.40;;;3.43;;
43435;SDS011;36399;51.444;-2.018;2022-09-21T01:58:23;6.97;;;3.43;;
43435;SDS011;36399;51.444;-2.018;2022-09-21T02:00:57;7.20;;;4.07;;
43435;SDS011;36399;51.444;-2.018;2022-09-21T02:03:26;9.13;;;5.10;;
43435;SDS011;36399;51.444;-2.018;2022-09-21T02:05:59;11.60;;;6.03;;
43435;SDS011;36399;51.444;-2.018;2022-09-21T02:08:25;9.63;;;5.43;;
43435;SDS011;36399;51.444;-2.018;2022-09-21T02:10:56;8.10;;;4.70;;
43435;SDS011;36399;51.444;-2.018;2022-09-21T02:13:25;9.87;;;5.33;;
43435;SDS011;36399;51.444;-2.018;2022-09-21T02:16:18;9.50;;;4.93;;
43435;SDS011;36399;51.444;-2.018;2022-09-21T02:24:46;9.50;;;4.70;;
43435;SDS011;36399;51.444;-2.018;2022-09-21T02:30:05;11.20;;;6.03;;
43435;SDS011;36399;51.444;-2.018;2022-09-21T02:35:12;11.30;;;6.07;;
43435;SDS011;36399;51.444;-2.018;2022-09-21T02:37:47;8.77;;;5.23;;
43435;SDS011;36399;51.444;-2.018;2022-09-21T02:40:26;9.90;;;6.47;;
43435;SDS011;36399;51.444;-2.018;2022-09-21T02:42:56;12.40;;;6.83;;
43435;SDS011;36399;51.444;-2.018;2022-09-21T02:45:27;9.40;;;5.20;;
43435;SDS011;36399;51.444;-2.018;2022-09-21T02:47:59;10.47;;;5.43;;
43435;SDS011;36399;51.444;-2.018;2022-09-21T02:50:52;9.40;;;5.73;;
43435;SDS011;36399;51.444;-2.018;2022-09-21T02:53:19;10.17;;;6.07;;
43435;SDS011;36399;51.444;-2.018;2022-09-21T02:55:50;12.15;;;6.35;;
43435;SDS011;36399;51.444;-2.018;2022-09-21T02:58:18;11.97;;;6.53;;
43435;SDS011;36399;51.444;-2.018;2022-09-21T03:00:48;12.07;;;7.30;;
43435;SDS011;36399;51.444;-2.018;2022-09-21T03:03:16;11.93;;;6.23;;
43435;SDS011;36399;51.444;-2.018;2022-09-21T03:05:44;12.50;;;7.10;;
43435;SDS011;36399;51.444;-2.018;2022-09-21T03:08:13;10.27;;;6.67;;
43435;SDS011;36399;51.444;-2.018;2022-09-21T03:10:39;10.57;;;6.43;;
43435;SDS011;36399;51.444;-2.018;2022-09-21T03:13:06;11.83;;;7.27;;
43435;SDS011;36399;51.444;-2.018;2022-09-21T03:15:37;13.77;;;6.63;;
43435;SDS011;36399;51.444;-2.018;2022-09-21T03:18:04;11.13;;;6.73;;
43435;SDS011;36399;51.444;-2.018;2022-09-21T03:20:34;12.10;;;6.77;;
43435;SDS011;36399;51.444;-2.018;2022-09-21T03:23:01;12.93;;;6.83;;
43435;SDS011;36399;51.444;-2.018;2022-09-21T03:25:27;12.23;;;7.37;;
43435;SDS011;36399;51.444;-2.018;2022-09-21T03:27:54;11.77;;;6.80;;
43435;SDS011;36399;51.444;-2.018;2022-09-21T03:30:20;12.43;;;7.03;;
43435;SDS011;36399;51.444;-2.018;2022-09-21T03:32:48;11.93;;;6.83;;
43435;SDS011;36399;51.444;-2.018;2022-09-21T03:35:16;11.17;;;7.30;;
43435;SDS011;36399;51.444;-2.018;2022-09-21T03:37:43;10.97;;;7.07;;
43435;SDS011;36399;51.444;-2.018;2022-09-21T03:40:10;12.83;;;7.47;;
43435;SDS011;36399;51.444;-2.018;2022-09-21T03:42:37;13.27;;;7.90;;
43435;SDS011;36399;51.444;-2.018;2022-09-21T03:45:05;15.57;;;7.70;;
43435;SDS011;36399;51.444;-2.018;2022-09-21T03:47:31;12.60;;;6.50;;
43435;SDS011;36399;51.444;-2.018;2022-09-21T03:49:58;14.23;;;7.47;;
43435;SDS011;36399;51.444;-2.018;2022-09-21T03:52:24;12.77;;;7.43;;
43435;SDS011;36399;51.444;-2.018;2022-09-21T03:54:50;14.10;;;7.33;;
43435;SDS011;36399;51.444;-2.018;2022-09-21T03:57:16;12.07;;;7.30;;
43435;SDS011;36399;51.444;-2.018;2022-09-21T03:59:42;12.57;;;6.53;;
43435;SDS011;36399;51.444;-2.018;2022-09-21T04:02:08;15.60;;;7.03;;
43435;SDS011;36399;51.444;-2.018;2022-09-21T04:04:34;12.13;;;6.67;;
43435;SDS011;36399;51.444;-2.018;2022-09-21T04:07:00;11.67;;;5.97;;
43435;SDS011;36399;51.444;-2.018;2022-09-21T04:09:26;10.97;;;5.63;;
43435;SDS011;36399;51.444;-2.018;2022-09-21T04:11:51;10.83;;;5.13;;
43435;SDS011;36399;51.444;-2.018;2022-09-21T04:14:18;8.67;;;4.50;;
43435;SDS011;36399;51.444;-2.018;2022-09-21T04:16:45;10.13;;;4.70;;
43435;SDS011;36399;51.444;-2.018;2022-09-21T04:19:11;9.93;;;5.17;;
43435;SDS011;36399;51.444;-2.018;2022-09-21T04:21:37;9.63;;;5.33;;
43435;SDS011;36399;51.444;-2.018;2022-09-21T04:24:03;10.30;;;5.47;;
43435;SDS011;36399;51.444;-2.018;2022-09-21T04:26:30;9.43;;;5.13;;
43435;SDS011;36399;51.444;-2.018;2022-09-21T04:28:58;11.00;;;6.23;;
43435;SDS011;36399;51.444;-2.018;2022-09-21T04:31:24;11.67;;;6.13;;
43435;SDS011;36399;51.444;-2.018;2022-09-21T04:33:52;11.87;;;6.73;;
43435;SDS011;36399;51.444;-2.018;2022-09-21T04:36:20;13.57;;;6.67;;
43435;SDS011;36399;51.444;-2.018;2022-09-21T04:38:48;11.73;;;6.50;;
43435;SDS011;36399;51.444;-2.018;2022-09-21T04:41:14;10.90;;;5.77;;
43435;SDS011;36399;51.444;-2.018;2022-09-21T04:43:42;12.83;;;6.53;;
43435;SDS011;36399;51.444;-2.018;2022-09-21T04:46:15;11.27;;;6.20;;
43435;SDS011;36399;51.444;-2.018;2022-09-21T04:48:42;12.27;;;6.80;;
43435;SDS011;36399;51.444;-2.018;2022-09-21T04:51:09;12.67;;;8.00;;
43435;SDS011;36399;51.444;-2.018;2022-09-21T04:53:36;17.73;;;8.80;;
43435;SDS011;36399;51.444;-2.018;2022-09-21T04:56:04;15.90;;;8.90;;
43435;SDS011;36399;51.444;-2.018;2022-09-21T04:58:31;15.97;;;8.50;;
43435;SDS011;36399;51.444;-2.018;2022-09-21T05:00:57;16.97;;;8.33;;
43435;SDS011;36399;51.444;-2.018;2022-09-21T05:03:24;13.77;;;7.73;;
43435;SDS011;36399;51.444;-2.018;2022-09-21T05:05:52;15.47;;;7.70;;
43435;SDS011;36399;51.444;-2.018;2022-09-21T05:08:19;17.20;;;9.07;;
43435;SDS011;36399;51.444;-2.018;2022-09-21T05:11:05;17.03;;;8.53;;
43435;SDS011;36399;51.444;-2.018;2022-09-21T05:13:32;17.10;;;9.17;;
43435;SDS011;36399;51.444;-2.018;2022-09-21T05:15:58;13.93;;;8.43;;
43435;SDS011;36399;51.444;-2.018;2022-09-21T05:18:24;19.43;;;9.50;;
43435;SDS011;36399;51.444;-2.018;2022-09-21T05:20:53;18.90;;;9.77;;
43435;SDS011;36399;51.444;-2.018;2022-09-21T05:23:23;15.50;;;8.83;;
43435;SDS011;36399;51.444;-2.018;2022-09-21T05:25:50;18.23;;;9.17;;
43435;SDS011;36399;51.444;-2.018;2022-09-21T05:28:16;17.67;;;9.60;;
43435;SDS011;36399;51.444;-2.018;2022-09-21T05:30:44;17.97;;;10.50;;
43435;SDS011;36399;51.444;-2.018;2022-09-21T05:33:16;20.23;;;10.43;;
43435;SDS011;36399;51.444;-2.018;2022-09-21T05:36:00;20.87;;;10.33;;
43435;SDS011;36399;51.444;-2.018;2022-09-21T05:38:43;19.57;;;10.83;;
43435;SDS011;36399;51.444;-2.018;2022-09-21T05:41:10;19.83;;;9.87;;
43435;SDS011;36399;51.444;-2.018;2022-09-21T05:43:36;20.90;;;10.00;;
43435;SDS011;36399;51.444;-2.018;2022-09-21T05:46:15;14.57;;;9.50;;
43435;SDS011;36399;51.444;-2.018;2022-09-21T05:48:59;17.63;;;8.77;;
43435;SDS011;36399;51.444;-2.018;2022-09-21T06:05:12;17.87;;;8.90;;
43435;SDS011;36399;51.444;-2.018;2022-09-21T06:07:39;18.27;;;9.43;;
43435;SDS011;36399;51.444;-2.018;2022-09-21T06:10:09;19.80;;;10.27;;
43435;SDS011;36399;51.444;-2.018;2022-09-21T06:12:37;20.40;;;11.53;;
43435;SDS011;36399;51.444;-2.018;2022-09-21T06:15:04;18.17;;;9.90;;
43435;SDS011;36399;51.444;-2.018;2022-09-21T06:17:32;25.33;;;11.20;;
43435;SDS011;36399;51.444;-2.018;2022-09-21T06:19:58;21.90;;;10.53;;
43435;SDS011;36399;51.444;-2.018;2022-09-21T06:22:24;26.73;;;12.00;;
43435;SDS011;36399;51.444;-2.018;2022-09-21T06:24:50;24.57;;;11.57;;
43435;SDS011;36399;51.444;-2.018;2022-09-21T06:27:16;24.53;;;13.70;;
43435;SDS011;36399;51.444;-2.018;2022-09-21T06:29:45;23.23;;;11.53;;
43435;SDS011;36399;51.444;-2.018;2022-09-21T06:32:11;23.93;;;11.70;;
43435;SDS011;36399;51.444;-2.018;2022-09-21T06:34:37;23.83;;;10.97;;
43435;SDS011;36399;51.444;-2.018;2022-09-21T06:37:03;24.10;;;11.70;;
43435;SDS011;36399;51.444;-2.018;2022-09-21T06:39:28;24.20;;;12.37;;
43435;SDS011;36399;51.444;-2.018;2022-09-21T06:41:54;21.67;;;10.83;;
43435;SDS011;36399;51.444;-2.018;2022-09-21T06:44:21;25.93;;;11.67;;
43435;SDS011;36399;51.444;-2.018;2022-09-21T06:46:46;19.63;;;11.37;;
43435;SDS011;36399;51.444;-2.018;2022-09-21T06:49:12;22.53;;;10.90;;
43435;SDS011;36399;51.444;-2.018;2022-09-21T06:51:38;19.03;;;10.07;;
43435;SDS011;36399;51.444;-2.018;2022-09-21T06:54:04;26.00;;;10.90;;
43435;SDS011;36399;51.444;-2.018;2022-09-21T06:56:30;26.07;;;12.17;;
43435;SDS011;36399;51.444;-2.018;2022-09-21T06:58:57;18.67;;;9.87;;
43435;SDS011;36399;51.444;-2.018;2022-09-21T07:01:23;15.27;;;9.13;;
43435;SDS011;36399;51.444;-2.018;2022-09-21T07:03:49;12.60;;;7.77;;
43435;SDS011;36399;51.444;-2.018;2022-09-21T07:06:16;14.27;;;7.60;;
43435;SDS011;36399;51.444;-2.018;2022-09-21T07:08:43;15.07;;;7.57;;
43435;SDS011;36399;51.444;-2.018;2022-09-21T07:11:10;17.57;;;7.47;;
43435;SDS011;36399;51.444;-2.018;2022-09-21T07:13:36;16.07;;;8.00;;
43435;SDS011;36399;51.444;-2.018;2022-09-21T07:16:03;13.77;;;7.30;;
43435;SDS011;36399;51.444;-2.018;2022-09-21T07:18:32;16.17;;;7.40;;
43435;SDS011;36399;51.444;-2.018;2022-09-21T07:21:05;13.83;;;6.90;;
43435;SDS011;36399;51.444;-2.018;2022-09-21T07:23:32;10.97;;;6.53;;
43435;SDS011;36399;51.444;-2.018;2022-09-21T07:26:03;16.80;;;7.53;;
43435;SDS011;36399;51.444;-2.018;2022-09-21T07:28:34;17.67;;;7.30;;
43435;SDS011;36399;51.444;-2.018;2022-09-21T07:31:07;15.87;;;8.67;;
43435;SDS011;36399;51.444;-2.018;2022-09-21T07:33:34;16.43;;;7.43;;
43435;SDS011;36399;51.444;-2.018;2022-09-21T07:36:01;14.87;;;8.90;;
43435;SDS011;36399;51.444;-2.018;2022-09-21T07:38:35;14.68;;;8.73;;
43435;SDS011;36399;51.444;-2.018;2022-09-21T07:41:06;15.50;;;7.87;;
43435;SDS011;36399;51.444;-2.018;2022-09-21T07:43:32;14.00;;;8.07;;
43435;SDS011;36399;51.444;-2.018;2022-09-21T07:45:59;13.67;;;7.77;;
43435;SDS011;36399;51.444;-2.018;2022-09-21T07:48:26;12.37;;;7.83;;
43435;SDS011;36399;51.444;-2.018;2022-09-21T07:50:53;11.37;;;7.03;;
43435;SDS011;36399;51.444;-2.018;2022-09-21T07:53:22;12.27;;;6.23;;
43435;SDS011;36399;51.444;-2.018;2022-09-21T07:55:48;15.37;;;8.87;;
43435;SDS011;36399;51.444;-2.018;2022-09-21T07:58:14;15.07;;;8.43;;
43435;SDS011;36399;51.444;-2.018;2022-09-21T08:00:58;13.53;;;8.10;;
43435;SDS011;36399;51.444;-2.018;2022-09-21T08:03:30;10.53;;;6.53;;
43435;SDS011;36399;51.444;-2.018;2022-09-21T08:05:57;15.97;;;7.03;;
43435;SDS011;36399;51.444;-2.018;2022-09-21T08:08:24;14.40;;;7.83;;
43435;SDS011;36399;51.444;-2.018;2022-09-21T08:10:50;13.67;;;7.20;;
43435;SDS011;36399;51.444;-2.018;2022-09-21T08:13:19;12.60;;;7.73;;
43435;SDS011;36399;51.444;-2.018;2022-09-21T08:15:45;14.17;;;7.80;;
43435;SDS011;36399;51.444;-2.018;2022-09-21T08:18:11;16.33;;;8.37;;
43435;SDS011;36399;51.444;-2.018;2022-09-21T08:20:37;14.20;;;7.03;;
43435;SDS011;36399;51.444;-2.018;2022-09-21T08:23:03;13.03;;;7.30;;
43435;SDS011;36399;51.444;-2.018;2022-09-21T08:25:29;13.03;;;7.43;;
43435;SDS011;36399;51.444;-2.018;2022-09-21T08:27:58;14.13;;;7.90;;
43435;SDS011;36399;51.444;-2.018;2022-09-21T08:30:25;15.13;;;8.23;;
43435;SDS011;36399;51.444;-2.018;2022-09-21T08:32:53;14.17;;;8.00;;
43435;SDS011;36399;51.444;-2.018;2022-09-21T08:35:19;12.83;;;8.33;;
43435;SDS011;36399;51.444;-2.018;2022-09-21T08:37:46;10.90;;;6.10;;
43435;SDS011;36399;51.444;-2.018;2022-09-21T08:40:12;10.60;;;6.60;;
43435;SDS011;36399;51.444;-2.018;2022-09-21T08:42:44;13.40;;;6.90;;
43435;SDS011;36399;51.444;-2.018;2022-09-21T08:45:18;10.10;;;6.20;;
43435;SDS011;36399;51.444;-2.018;2022-09-21T08:47:46;13.87;;;6.37;;
43435;SDS011;36399;51.444;-2.018;2022-09-21T08:52:49;9.10;;;5.03;;
43435;SDS011;36399;51.444;-2.018;2022-09-21T08:55:19;8.90;;;5.17;;
43435;SDS011;36399;51.444;-2.018;2022-09-21T08:57:45;9.30;;;4.83;;
43435;SDS011;36399;51.444;-2.018;2022-09-21T09:00:13;8.97;;;4.83;;
43435;SDS011;36399;51.444;-2.018;2022-09-21T09:05:26;6.97;;;3.90;;
43435;SDS011;36399;51.444;-2.018;2022-09-21T09:16:29;7.33;;;3.80;;
43435;SDS011;36399;51.444;-2.018;2022-09-21T09:19:16;6.20;;;3.90;;
43435;SDS011;36399;51.444;-2.018;2022-09-21T09:21:52;4.87;;;2.73;;
43435;SDS011;36399;51.444;-2.018;2022-09-21T09:32:12;6.50;;;3.17;;
43435;SDS011;36399;51.444;-2.018;2022-09-21T09:34:51;5.25;;;2.80;;
43435;SDS011;36399;51.444;-2.018;2022-09-21T09:37:23;3.67;;;2.17;;
43435;SDS011;36399;51.444;-2.018;2022-09-21T09:39:58;4.22;;;2.47;;
43435;SDS011;36399;51.444;-2.018;2022-09-21T09:42:32;5.10;;;2.00;;
43435;SDS011;36399;51.444;-2.018;2022-09-21T09:50:34;4.57;;;1.95;;
43435;SDS011;36399;51.444;-2.018;2022-09-21T09:53:04;2.35;;;1.13;;
43435;SDS011;36399;51.444;-2.018;2022-09-21T09:56:00;2.92;;;1.27;;
43435;SDS011;36399;51.444;-2.018;2022-09-21T10:01:09;2.20;;;0.90;;
43435;SDS011;36399;51.444;-2.018;2022-09-21T10:04:15;2.70;;;1.55;;
43435;SDS011;36399;51.444;-2.018;2022-09-21T10:06:42;2.90;;;1.20;;
43435;SDS011;36399;51.444;-2.018;2022-09-21T10:09:19;2.30;;;1.40;;
43435;SDS011;36399;51.444;-2.018;2022-09-21T10:11:49;2.30;;;0.98;;
43435;SDS011;36399;51.444;-2.018;2022-09-21T10:14:18;3.53;;;1.15;;
43435;SDS011;36399;51.444;-2.018;2022-09-21T10:16:51;2.33;;;1.10;;
43435;SDS011;36399;51.444;-2.018;2022-09-21T10:19:24;2.88;;;1.60;;
43435;SDS011;36399;51.444;-2.018;2022-09-21T10:21:55;3.75;;;1.63;;
43435;SDS011;36399;51.444;-2.018;2022-09-21T10:24:29;3.13;;;1.77;;
43435;SDS011;36399;51.444;-2.018;2022-09-21T10:27:14;2.92;;;1.65;;
43435;SDS011;36399;51.444;-2.018;2022-09-21T10:29:45;3.80;;;1.73;;
43435;SDS011;36399;51.444;-2.018;2022-09-21T10:34:39;3.88;;;1.40;;
43435;SDS011;36399;51.444;-2.018;2022-09-21T10:37:26;3.42;;;1.92;;
43435;SDS011;36399;51.444;-2.018;2022-09-21T10:39:54;3.17;;;1.35;;
43435;SDS011;36399;51.444;-2.018;2022-09-21T10:42:21;3.92;;;1.90;;
43435;SDS011;36399;51.444;-2.018;2022-09-21T10:44:48;3.10;;;1.55;;
43435;SDS011;36399;51.444;-2.018;2022-09-21T10:47:24;3.35;;;1.30;;
43435;SDS011;36399;51.444;-2.018;2022-09-21T10:50:02;2.30;;;1.30;;
43435;SDS011;36399;51.444;-2.018;2022-09-21T10:52:33;2.55;;;1.08;;
43435;SDS011;36399;51.444;-2.018;2022-09-21T10:55:16;7.25;;;4.20;;
43435;SDS011;36399;51.444;-2.018;2022-09-21T10:57:45;4.70;;;2.35;;
43435;SDS011;36399;51.444;-2.018;2022-09-21T11:02:51;2.70;;;1.40;;
43435;SDS011;36399;51.444;-2.018;2022-09-21T11:05:21;3.95;;;2.10;;
43435;SDS011;36399;51.444;-2.018;2022-09-21T11:10:23;3.47;;;1.20;;
43435;SDS011;36399;51.444;-2.018;2022-09-21T11:15:48;2.67;;;1.13;;
43435;SDS011;36399;51.444;-2.018;2022-09-21T11:18:34;3.78;;;1.55;;
43435;SDS011;36399;51.444;-2.018;2022-09-21T11:21:25;2.58;;;1.20;;
43435;SDS011;36399;51.444;-2.018;2022-09-21T11:24:04;2.65;;;1.00;;
43435;SDS011;36399;51.444;-2.018;2022-09-21T11:30:08;27.30;;;21.77;;
43435;SDS011;36399;51.444;-2.018;2022-09-21T11:40:31;3.00;;;1.60;;
43435;SDS011;36399;51.444;-2.018;2022-09-21T11:43:37;3.63;;;1.40;;
43435;SDS011;36399;51.444;-2.018;2022-09-21T11:57:27;11.85;;;5.60;;
43435;SDS011;36399;51.444;-2.018;2022-09-21T12:00:06;4.20;;;2.47;;
43435;SDS011;36399;51.444;-2.018;2022-09-21T12:05:34;3.42;;;1.70;;
43435;SDS011;36399;51.444;-2.018;2022-09-21T12:14:03;4.78;;;1.33;;
43435;SDS011;36399;51.444;-2.018;2022-09-21T12:16:58;4.50;;;2.17;;
43435;SDS011;36399;51.444;-2.018;2022-09-21T12:27:31;2.65;;;1.25;;
43435;SDS011;36399;51.444;-2.018;2022-09-21T12:30:11;2.75;;;1.23;;
43435;SDS011;36399;51.444;-2.018;2022-09-21T12:32:43;12.88;;;8.45;;
43435;SDS011;36399;51.444;-2.018;2022-09-21T12:35:26;21.42;;;16.95;;
43435;SDS011;36399;51.444;-2.018;2022-09-21T12:38:03;7.55;;;5.13;;
43435;SDS011;36399;51.444;-2.018;2022-09-21T12:46:27;3.20;;;1.40;;
43435;SDS011;36399;51.444;-2.018;2022-09-21T12:48:59;3.45;;;1.05;;
43435;SDS011;36399;51.444;-2.018;2022-09-21T12:51:31;4.38;;;1.30;;
43435;SDS011;36399;51.444;-2.018;2022-09-21T12:54:04;2.65;;;1.30;;
43435;SDS011;36399;51.444;-2.018;2022-09-21T12:57:42;2.35;;;1.02;;
43435;SDS011;36399;51.444;-2.018;2022-09-21T13:05:38;3.33;;;1.57;;
43435;SDS011;36399;51.444;-2.018;2022-09-21T13:08:15;3.58;;;1.33;;
43435;SDS011;36399;51.444;-2.018;2022-09-21T13:10:54;2.08;;;1.00;;
43435;SDS011;36399;51.444;-2.018;2022-09-21T13:13:25;2.17;;;0.82;;
43435;SDS011;36399;51.444;-2.018;2022-09-21T13:15:59;2.08;;;1.23;;
43435;SDS011;36399;51.444;-2.018;2022-09-21T13:21:16;4.30;;;1.10;;
43435;SDS011;36399;51.444;-2.018;2022-09-21T13:23:50;2.10;;;1.00;;
43435;SDS011;36399;51.444;-2.018;2022-09-21T13:26:38;3.83;;;1.73;;
43435;SDS011;36399;51.444;-2.018;2022-09-21T13:31:58;2.42;;;1.20;;
43435;SDS011;36399;51.444;-2.018;2022-09-21T13:34:40;2.40;;;1.38;;
43435;SDS011;36399;51.444;-2.018;2022-09-21T13:39:36;3.60;;;1.17;;
43435;SDS011;36399;51.444;-2.018;2022-09-21T13:47:39;2.60;;;1.27;;
43435;SDS011;36399;51.444;-2.018;2022-09-21T13:50:27;4.18;;;1.10;;
43435;SDS011;36399;51.444;-2.018;2022-09-21T13:53:14;5.53;;;1.85;;
43435;SDS011;36399;51.444;-2.018;2022-09-21T13:55:50;5.97;;;2.88;;
43435;SDS011;36399;51.444;-2.018;2022-09-21T14:06:27;3.33;;;1.60;;
43435;SDS011;36399;51.444;-2.018;2022-09-21T14:09:01;3.22;;;1.38;;
43435;SDS011;36399;51.444;-2.018;2022-09-21T14:14:03;2.78;;;1.30;;
43435;SDS011;36399;51.444;-2.018;2022-09-21T14:24:39;3.08;;;1.30;;
43435;SDS011;36399;51.444;-2.018;2022-09-21T14:29:57;3.33;;;1.30;;
43435;SDS011;36399;51.444;-2.018;2022-09-21T14:32:28;2.35;;;1.20;;
43435;SDS011;36399;51.444;-2.018;2022-09-21T14:35:01;3.78;;;1.52;;
43435;SDS011;36399;51.444;-2.018;2022-09-21T14:37:44;3.75;;;1.40;;
43435;SDS011;36399;51.444;-2.018;2022-09-21T14:40:19;3.17;;;1.40;;
43435;SDS011;36399;51.444;-2.018;2022-09-21T14:42:51;2.92;;;1.30;;
43435;SDS011;36399;51.444;-2.018;2022-09-21T14:45:22;3.50;;;2.30;;
43435;SDS011;36399;51.444;-2.018;2022-09-21T14:48:15;2.95;;;1.48;;
43435;SDS011;36399;51.444;-2.018;2022-09-21T14:50:53;2.22;;;1.10;;
43435;SDS011;36399;51.444;-2.018;2022-09-21T14:58:34;2.70;;;1.38;;
43435;SDS011;36399;51.444;-2.018;2022-09-21T15:03:59;3.42;;;1.63;;
43435;SDS011;36399;51.444;-2.018;2022-09-21T15:09:53;3.60;;;1.50;;
43435;SDS011;36399;51.444;-2.018;2022-09-21T15:19:04;3.47;;;1.40;;
43435;SDS011;36399;51.444;-2.018;2022-09-21T15:21:44;3.40;;;1.52;;
43435;SDS011;36399;51.444;-2.018;2022-09-21T15:24:16;2.67;;;1.33;;
43435;SDS011;36399;51.444;-2.018;2022-09-21T15:26:42;4.28;;;1.55;;
43435;SDS011;36399;51.444;-2.018;2022-09-21T15:29:11;2.88;;;1.35;;
43435;SDS011;36399;51.444;-2.018;2022-09-21T15:31:50;5.47;;;2.53;;
43435;SDS011;36399;51.444;-2.018;2022-09-21T15:34:17;4.13;;;1.80;;
43435;SDS011;36399;51.444;-2.018;2022-09-21T15:36:44;4.03;;;1.77;;
43435;SDS011;36399;51.444;-2.018;2022-09-21T15:39:27;3.97;;;1.65;;
43435;SDS011;36399;51.444;-2.018;2022-09-21T15:42:04;4.15;;;1.77;;
43435;SDS011;36399;51.444;-2.018;2022-09-21T15:44:37;3.10;;;1.50;;
43435;SDS011;36399;51.444;-2.018;2022-09-21T15:47:07;3.08;;;1.58;;
43435;SDS011;36399;51.444;-2.018;2022-09-21T15:49:37;3.22;;;1.45;;
43435;SDS011;36399;51.444;-2.018;2022-09-21T15:52:08;3.13;;;1.73;;
43435;SDS011;36399;51.444;-2.018;2022-09-21T15:59:53;2.92;;;1.45;;
43435;SDS011;36399;51.444;-2.018;2022-09-21T16:02:21;3.03;;;1.58;;
43435;SDS011;36399;51.444;-2.018;2022-09-21T16:04:50;3.22;;;1.50;;
43435;SDS011;36399;51.444;-2.018;2022-09-21T16:09:54;2.55;;;1.20;;
43435;SDS011;36399;51.444;-2.018;2022-09-21T16:14:59;2.53;;;1.20;;
43435;SDS011;36399;51.444;-2.018;2022-09-21T16:17:34;2.65;;;1.23;;
43435;SDS011;36399;51.444;-2.018;2022-09-21T16:20:03;2.92;;;1.17;;
43435;SDS011;36399;51.444;-2.018;2022-09-21T16:22:45;2.47;;;1.15;;
43435;SDS011;36399;51.444;-2.018;2022-09-21T16:27:59;3.55;;;1.15;;
43435;SDS011;36399;51.444;-2.018;2022-09-21T16:30:44;3.35;;;1.25;;
43435;SDS011;36399;51.444;-2.018;2022-09-21T16:36:10;2.80;;;1.30;;
43435;SDS011;36399;51.444;-2.018;2022-09-21T16:38:50;4.03;;;1.33;;
43435;SDS011;36399;51.444;-2.018;2022-09-21T16:41:21;3.47;;;1.30;;
43435;SDS011;36399;51.444;-2.018;2022-09-21T16:43:51;3.63;;;1.58;;
43435;SDS011;36399;51.444;-2.018;2022-09-21T16:46:18;3.65;;;1.52;;
43435;SDS011;36399;51.444;-2.018;2022-09-21T16:48:44;3.83;;;1.50;;
43435;SDS011;36399;51.444;-2.018;2022-09-21T16:51:11;4.22;;;1.52;;
43435;SDS011;36399;51.444;-2.018;2022-09-21T16:53:37;3.17;;;1.60;;
43435;SDS011;36399;51.444;-2.018;2022-09-21T16:56:03;4.00;;;1.80;;
43435;SDS011;36399;51.444;-2.018;2022-09-21T16:58:31;4.65;;;1.90;;
43435;SDS011;36399;51.444;-2.018;2022-09-21T17:00:57;7.25;;;1.40;;
43435;SDS011;36399;51.444;-2.018;2022-09-21T17:03:23;5.20;;;2.53;;
43435;SDS011;36399;51.444;-2.018;2022-09-21T17:05:49;15.50;;;3.38;;
43435;SDS011;36399;51.444;-2.018;2022-09-21T17:08:15;5.25;;;2.38;;
43435;SDS011;36399;51.444;-2.018;2022-09-21T17:10:42;5.00;;;2.17;;
43435;SDS011;36399;51.444;-2.018;2022-09-21T17:13:11;3.70;;;2.15;;
43435;SDS011;36399;51.444;-2.018;2022-09-21T17:15:42;6.70;;;3.00;;
43435;SDS011;36399;51.444;-2.018;2022-09-21T17:18:11;4.68;;;2.42;;
43435;SDS011;36399;51.444;-2.018;2022-09-21T17:20:43;5.50;;;2.08;;
43435;SDS011;36399;51.444;-2.018;2022-09-21T17:23:10;6.00;;;1.90;;
43435;SDS011;36399;51.444;-2.018;2022-09-21T17:25:36;4.03;;;2.17;;
43435;SDS011;36399;51.444;-2.018;2022-09-21T17:28:05;4.43;;;2.45;;
43435;SDS011;36399;51.444;-2.018;2022-09-21T17:30:41;9.07;;;2.65;;
43435;SDS011;36399;51.444;-2.018;2022-09-21T17:33:11;6.43;;;3.40;;
43435;SDS011;36399;51.444;-2.018;2022-09-21T17:35:38;5.75;;;3.17;;
43435;SDS011;36399;51.444;-2.018;2022-09-21T17:38:05;4.70;;;2.40;;
43435;SDS011;36399;51.444;-2.018;2022-09-21T17:40:35;4.63;;;2.35;;
43435;SDS011;36399;51.444;-2.018;2022-09-21T17:43:11;4.37;;;2.13;;
43435;SDS011;36399;51.444;-2.018;2022-09-21T17:45:48;5.53;;;1.57;;
43435;SDS011;36399;51.444;-2.018;2022-09-21T17:48:21;4.00;;;1.97;;
43435;SDS011;36399;51.444;-2.018;2022-09-21T17:50:48;4.67;;;1.70;;
43435;SDS011;36399;51.444;-2.018;2022-09-21T17:53:14;4.07;;;1.70;;
43435;SDS011;36399;51.444;-2.018;2022-09-21T17:56:01;3.77;;;1.43;;
43435;SDS011;36399;51.444;-2.018;2022-09-21T17:58:40;4.17;;;1.87;;
43435;SDS011;36399;51.444;-2.018;2022-09-21T18:03:41;5.07;;;1.90;;
43435;SDS011;36399;51.444;-2.018;2022-09-21T18:06:09;5.83;;;1.53;;
43435;SDS011;36399;51.444;-2.018;2022-09-21T18:08:36;3.43;;;1.77;;